sensor_id;sensor_type;location;lat;lon;timestamp;pressure;altitude;pressure_sealevel;temperature;humidity
50684;BME280;36654;45.042;38.994;2022-08-19T00:01:43;100338.16;;;26.03;70.36
50684;BME280;36654;45.042;38.994;2022-08-19T00:04:11;100341.03;;;26.00;70.67
50684;BME280;36654;45.042;38.994;2022-08-19T00:06:39;100349.34;;;25.97;70.88
50684;BME280;36654;45.042;38.994;2022-08-19T00:09:07;100338.69;;;25.94;71.01
50684;BME280;36654;45.042;38.994;2022-08-19T00:11:33;100331.69;;;25.90;71.19
50684;BME280;36654;45.042;38.994;2022-08-19T00:13:59;100341.09;;;25.83;71.39
50684;BME280;36654;45.042;38.994;2022-08-19T00:16:26;100327.78;;;25.78;71.43
50684;BME280;36654;45.042;38.994;2022-08-19T00:18:51;100348.31;;;25.84;71.47
50684;BME280;36654;45.042;38.994;2022-08-19T00:21:17;100343.06;;;25.81;71.66
50684;BME280;36654;45.042;38.994;2022-08-19T00:23:43;100344.00;;;25.80;71.61
50684;BME280;36654;45.042;38.994;2022-08-19T00:26:10;100315.72;;;25.68;71.80
50684;BME280;36654;45.042;38.994;2022-08-19T00:28:36;100329.81;;;25.75;71.50
50684;BME280;36654;45.042;38.994;2022-08-19T00:31:03;100341.66;;;25.74;71.91
50684;BME280;36654;45.042;38.994;2022-08-19T00:33:30;100342.88;;;25.68;71.92
50684;BME280;36654;45.042;38.994;2022-08-19T00:36:04;100340.09;;;25.70;71.89
50684;BME280;36654;45.042;38.994;2022-08-19T00:38:32;100340.25;;;25.67;71.88
50684;BME280;36654;45.042;38.994;2022-08-19T00:40:58;100298.59;;;25.36;72.44
50684;BME280;36654;45.042;38.994;2022-08-19T00:43:26;100355.75;;;25.65;72.20
50684;BME280;36654;45.042;38.994;2022-08-19T00:45:53;100300.19;;;25.40;72.11
50684;BME280;36654;45.042;38.994;2022-08-19T00:48:19;100326.88;;;25.64;72.32
50684;BME280;36654;45.042;38.994;2022-08-19T00:50:47;100326.09;;;25.61;72.11
50684;BME280;36654;45.042;38.994;2022-08-19T00:53:16;100322.78;;;25.56;72.15
50684;BME280;36654;45.042;38.994;2022-08-19T00:55:46;100314.16;;;25.48;72.64
50684;BME280;36654;45.042;38.994;2022-08-19T00:58:17;100341.22;;;25.66;72.39
50684;BME280;36654;45.042;38.994;2022-08-19T01:00:45;100341.31;;;25.64;72.30
50684;BME280;36654;45.042;38.994;2022-08-19T01:03:14;100340.44;;;25.64;72.53
50684;BME280;36654;45.042;38.994;2022-08-19T01:05:42;100304.03;;;25.36;72.28
50684;BME280;36654;45.042;38.994;2022-08-19T01:08:08;100356.75;;;25.64;72.18
50684;BME280;36654;45.042;38.994;2022-08-19T01:10:42;100344.47;;;25.56;72.62
50684;BME280;36654;45.042;38.994;2022-08-19T01:13:09;100297.13;;;25.30;72.68
50684;BME280;36654;45.042;38.994;2022-08-19T01:15:45;100344.63;;;25.53;72.57
50684;BME280;36654;45.042;38.994;2022-08-19T01:18:13;100345.41;;;25.55;72.69
50684;BME280;36654;45.042;38.994;2022-08-19T01:20:41;100311.53;;;25.31;72.98
50684;BME280;36654;45.042;38.994;2022-08-19T01:23:07;100349.97;;;25.55;73.02
50684;BME280;36654;45.042;38.994;2022-08-19T01:25:48;100337.84;;;25.46;72.76
50684;BME280;36654;45.042;38.994;2022-08-19T01:28:24;100344.31;;;25.44;73.01
50684;BME280;36654;45.042;38.994;2022-08-19T01:30:51;100356.72;;;25.48;73.03
50684;BME280;36654;45.042;38.994;2022-08-19T01:33:17;100352.53;;;25.42;73.01
50684;BME280;36654;45.042;38.994;2022-08-19T01:35:44;100325.28;;;25.28;73.10
50684;BME280;36654;45.042;38.994;2022-08-19T01:38:23;100344.44;;;25.40;73.10
50684;BME280;36654;45.042;38.994;2022-08-19T01:40:49;100325.91;;;25.33;73.11
50684;BME280;36654;45.042;38.994;2022-08-19T01:43:15;100336.44;;;25.39;73.16
50684;BME280;36654;45.042;38.994;2022-08-19T01:45:41;100338.34;;;25.37;72.78
50684;BME280;36654;45.042;38.994;2022-08-19T01:48:07;100327.50;;;25.37;72.91
50684;BME280;36654;45.042;38.994;2022-08-19T01:50:35;100346.31;;;25.40;72.98
50684;BME280;36654;45.042;38.994;2022-08-19T01:53:05;100349.00;;;25.40;73.16
50684;BME280;36654;45.042;38.994;2022-08-19T01:55:31;100336.06;;;25.29;72.97
50684;BME280;36654;45.042;38.994;2022-08-19T01:58:00;100353.03;;;25.33;72.94
50684;BME280;36654;45.042;38.994;2022-08-19T02:00:30;100357.66;;;25.31;73.03
50684;BME280;36654;45.042;38.994;2022-08-19T02:02:56;100340.16;;;25.21;73.13
50684;BME280;36654;45.042;38.994;2022-08-19T02:05:23;100361.72;;;25.24;73.14
50684;BME280;36654;45.042;38.994;2022-08-19T02:07:49;100361.78;;;25.22;73.15
50684;BME280;36654;45.042;38.994;2022-08-19T02:10:18;100309.91;;;24.95;73.35
50684;BME280;36654;45.042;38.994;2022-08-19T02:12:45;100343.38;;;25.11;73.34
50684;BME280;36654;45.042;38.994;2022-08-19T02:15:11;100358.44;;;25.17;73.07
50684;BME280;36654;45.042;38.994;2022-08-19T02:17:38;100348.94;;;25.08;73.42
50684;BME280;36654;45.042;38.994;2022-08-19T02:20:05;100359.78;;;25.08;73.07
50684;BME280;36654;45.042;38.994;2022-08-19T02:22:32;100358.41;;;25.01;73.07
50684;BME280;36654;45.042;38.994;2022-08-19T02:24:57;100358.88;;;24.92;73.15
50684;BME280;36654;45.042;38.994;2022-08-19T02:27:23;100352.28;;;24.80;73.59
50684;BME280;36654;45.042;38.994;2022-08-19T02:29:50;100370.03;;;24.86;73.74
50684;BME280;36654;45.042;38.994;2022-08-19T02:32:17;100366.72;;;24.81;74.11
50684;BME280;36654;45.042;38.994;2022-08-19T02:34:45;100371.25;;;24.80;73.84
50684;BME280;36654;45.042;38.994;2022-08-19T02:37:11;100368.97;;;24.72;73.73
50684;BME280;36654;45.042;38.994;2022-08-19T02:39:57;100326.91;;;24.48;73.56
50684;BME280;36654;45.042;38.994;2022-08-19T02:42:23;100391.75;;;24.68;73.44
50684;BME280;36654;45.042;38.994;2022-08-19T02:44:48;100385.69;;;24.63;73.71
50684;BME280;36654;45.042;38.994;2022-08-19T02:47:14;100334.22;;;24.46;73.15
50684;BME280;36654;45.042;38.994;2022-08-19T02:49:41;100379.94;;;24.87;72.55
50684;BME280;36654;45.042;38.994;2022-08-19T02:52:07;100376.72;;;24.96;72.18
50684;BME280;36654;45.042;38.994;2022-08-19T02:54:33;100375.41;;;25.21;71.40
50684;BME280;36654;45.042;38.994;2022-08-19T02:56:58;100370.53;;;25.43;70.31
50684;BME280;36654;45.042;38.994;2022-08-19T02:59:24;100368.44;;;25.80;69.05
50684;BME280;36654;45.042;38.994;2022-08-19T03:01:51;100380.09;;;26.14;68.00
50684;BME280;36654;45.042;38.994;2022-08-19T03:04:16;100389.19;;;26.43;66.67
50684;BME280;36654;45.042;38.994;2022-08-19T03:06:44;100355.34;;;26.49;65.19
50684;BME280;36654;45.042;38.994;2022-08-19T03:09:11;100378.63;;;26.83;64.25
50684;BME280;36654;45.042;38.994;2022-08-19T03:11:37;100376.91;;;26.96;63.37
50684;BME280;36654;45.042;38.994;2022-08-19T03:14:05;100391.41;;;27.11;62.71
50684;BME280;36654;45.042;38.994;2022-08-19T03:16:35;100390.03;;;27.32;62.10
50684;BME280;36654;45.042;38.994;2022-08-19T03:19:04;100354.66;;;27.32;60.92
50684;BME280;36654;45.042;38.994;2022-08-19T03:21:33;100400.09;;;27.73;60.60
50684;BME280;36654;45.042;38.994;2022-08-19T03:24:02;100405.13;;;27.80;59.56
50684;BME280;36654;45.042;38.994;2022-08-19T03:26:28;100396.41;;;27.89;59.29
50684;BME280;36654;45.042;38.994;2022-08-19T03:28:55;100400.03;;;28.02;59.12
50684;BME280;36654;45.042;38.994;2022-08-19T03:31:23;100390.75;;;28.19;58.38
50684;BME280;36654;45.042;38.994;2022-08-19T03:33:49;100399.59;;;28.35;57.60
50684;BME280;36654;45.042;38.994;2022-08-19T03:36:19;100397.56;;;28.39;57.10
50684;BME280;36654;45.042;38.994;2022-08-19T03:38:54;100392.75;;;28.43;56.94
50684;BME280;36654;45.042;38.994;2022-08-19T03:41:32;100386.94;;;28.49;56.72
50684;BME280;36654;45.042;38.994;2022-08-19T03:43:59;100400.03;;;28.69;56.05
50684;BME280;36654;45.042;38.994;2022-08-19T03:46:28;100382.81;;;28.69;55.35
50684;BME280;36654;45.042;38.994;2022-08-19T03:48:57;100412.28;;;28.89;54.89
50684;BME280;36654;45.042;38.994;2022-08-19T03:51:33;100399.41;;;28.91;55.33
50684;BME280;36654;45.042;38.994;2022-08-19T03:54:02;100392.88;;;28.94;54.93
50684;BME280;36654;45.042;38.994;2022-08-19T03:56:29;100392.19;;;28.90;54.68
50684;BME280;36654;45.042;38.994;2022-08-19T03:58:57;100405.09;;;29.01;54.37
50684;BME280;36654;45.042;38.994;2022-08-19T04:01:25;100402.06;;;29.06;54.36
50684;BME280;36654;45.042;38.994;2022-08-19T04:03:52;100402.25;;;29.15;53.97
50684;BME280;36654;45.042;38.994;2022-08-19T04:06:24;100410.00;;;29.34;53.96
50684;BME280;36654;45.042;38.994;2022-08-19T04:08:52;100406.38;;;29.46;53.05
50684;BME280;36654;45.042;38.994;2022-08-19T04:11:22;100431.69;;;29.61;52.73
50684;BME280;36654;45.042;38.994;2022-08-19T04:13:49;100425.56;;;29.58;52.73
50684;BME280;36654;45.042;38.994;2022-08-19T04:16:19;100424.25;;;29.63;52.46
50684;BME280;36654;45.042;38.994;2022-08-19T04:18:46;100421.22;;;29.68;52.41
50684;BME280;36654;45.042;38.994;2022-08-19T04:21:23;100431.22;;;29.80;52.15
50684;BME280;36654;45.042;38.994;2022-08-19T04:23:50;100393.44;;;29.74;51.71
50684;BME280;36654;45.042;38.994;2022-08-19T04:26:18;100427.19;;;30.10;51.22
50684;BME280;36654;45.042;38.994;2022-08-19T04:28:45;100414.66;;;30.31;51.02
50684;BME280;36654;45.042;38.994;2022-08-19T04:31:15;100420.38;;;30.64;50.45
50684;BME280;36654;45.042;38.994;2022-08-19T04:33:42;100411.94;;;31.13;49.09
50684;BME280;36654;45.042;38.994;2022-08-19T04:36:10;100413.59;;;31.61;48.15
50684;BME280;36654;45.042;38.994;2022-08-19T04:38:41;100419.41;;;32.01;46.90
50684;BME280;36654;45.042;38.994;2022-08-19T04:41:06;100414.53;;;32.37;46.15
50684;BME280;36654;45.042;38.994;2022-08-19T04:43:50;100414.88;;;32.76;44.84
50684;BME280;36654;45.042;38.994;2022-08-19T04:46:16;100428.66;;;33.07;44.58
50684;BME280;36654;45.042;38.994;2022-08-19T04:48:42;100425.81;;;33.08;44.06
50684;BME280;36654;45.042;38.994;2022-08-19T04:51:11;100433.63;;;33.13;43.83
50684;BME280;36654;45.042;38.994;2022-08-19T04:53:39;100431.88;;;33.12;43.77
50684;BME280;36654;45.042;38.994;2022-08-19T04:56:16;100428.22;;;33.23;43.58
50684;BME280;36654;45.042;38.994;2022-08-19T04:58:43;100426.59;;;33.20;43.65
50684;BME280;36654;45.042;38.994;2022-08-19T05:01:16;100407.28;;;33.32;43.46
50684;BME280;36654;45.042;38.994;2022-08-19T05:03:42;100416.00;;;33.67;42.95
50684;BME280;36654;45.042;38.994;2022-08-19T05:06:13;100414.59;;;34.02;42.30
50684;BME280;36654;45.042;38.994;2022-08-19T05:08:41;100385.38;;;34.01;41.89
50684;BME280;36654;45.042;38.994;2022-08-19T05:11:18;100411.63;;;34.25;41.32
50684;BME280;36654;45.042;38.994;2022-08-19T05:13:44;100413.50;;;34.24;41.63
50684;BME280;36654;45.042;38.994;2022-08-19T05:16:12;100406.00;;;34.26;41.14
50684;BME280;36654;45.042;38.994;2022-08-19T05:18:38;100412.66;;;34.43;41.53
50684;BME280;36654;45.042;38.994;2022-08-19T05:21:24;100396.59;;;34.39;41.24
50684;BME280;36654;45.042;38.994;2022-08-19T05:24:09;100408.19;;;34.32;41.24
50684;BME280;36654;45.042;38.994;2022-08-19T05:26:39;100411.50;;;34.36;41.31
50684;BME280;36654;45.042;38.994;2022-08-19T05:29:06;100415.13;;;34.56;41.04
50684;BME280;36654;45.042;38.994;2022-08-19T05:31:36;100413.53;;;34.73;40.18
50684;BME280;36654;45.042;38.994;2022-08-19T05:34:02;100379.63;;;34.53;40.35
50684;BME280;36654;45.042;38.994;2022-08-19T05:36:34;100391.50;;;34.34;40.30
50684;BME280;36654;45.042;38.994;2022-08-19T05:39:02;100422.78;;;34.33;40.10
50684;BME280;36654;45.042;38.994;2022-08-19T05:41:29;100428.13;;;34.25;41.09
50684;BME280;36654;45.042;38.994;2022-08-19T05:43:56;100432.19;;;34.21;41.11
50684;BME280;36654;45.042;38.994;2022-08-19T05:46:23;100391.47;;;33.95;40.80
50684;BME280;36654;45.042;38.994;2022-08-19T05:48:49;100412.84;;;33.91;41.12
50684;BME280;36654;45.042;38.994;2022-08-19T05:51:15;100409.63;;;33.77;41.48
50684;BME280;36654;45.042;38.994;2022-08-19T05:53:42;100420.03;;;33.63;41.94
50684;BME280;36654;45.042;38.994;2022-08-19T05:56:15;100434.78;;;33.11;42.34
50684;BME280;36654;45.042;38.994;2022-08-19T05:58:42;100440.44;;;32.56;43.19
50684;BME280;36654;45.042;38.994;2022-08-19T06:01:16;100434.97;;;32.01;44.37
50684;BME280;36654;45.042;38.994;2022-08-19T06:03:43;100435.34;;;31.63;44.59
50684;BME280;36654;45.042;38.994;2022-08-19T06:06:11;100442.81;;;31.38;44.58
50684;BME280;36654;45.042;38.994;2022-08-19T06:08:38;100442.56;;;31.19;45.13
50684;BME280;36654;45.042;38.994;2022-08-19T06:13:49;100442.53;;;30.96;45.42
50684;BME280;36654;45.042;38.994;2022-08-19T06:16:17;100441.25;;;30.89;45.57
50684;BME280;36654;45.042;38.994;2022-08-19T06:18:51;100441.94;;;30.80;46.17
50684;BME280;36654;45.042;38.994;2022-08-19T06:21:21;100366.72;;;30.39;45.68
50684;BME280;36654;45.042;38.994;2022-08-19T06:23:48;100440.84;;;30.82;45.48
50684;BME280;36654;45.042;38.994;2022-08-19T06:26:15;100442.81;;;30.80;45.81
50684;BME280;36654;45.042;38.994;2022-08-19T06:28:41;100427.47;;;30.66;45.57
50684;BME280;36654;45.042;38.994;2022-08-19T06:31:10;100454.47;;;30.71;45.82
50684;BME280;36654;45.042;38.994;2022-08-19T06:33:38;100453.09;;;30.65;45.80
50684;BME280;36654;45.042;38.994;2022-08-19T06:36:04;100449.97;;;30.59;45.62
50684;BME280;36654;45.042;38.994;2022-08-19T06:38:31;100453.03;;;30.54;45.93
50684;BME280;36654;45.042;38.994;2022-08-19T06:41:03;100448.56;;;30.53;45.60
50684;BME280;36654;45.042;38.994;2022-08-19T06:43:29;100463.28;;;30.63;45.47
50684;BME280;36654;45.042;38.994;2022-08-19T06:45:55;100464.25;;;30.62;45.36
50684;BME280;36654;45.042;38.994;2022-08-19T06:48:20;100456.28;;;30.59;45.88
50684;BME280;36654;45.042;38.994;2022-08-19T06:50:46;100476.22;;;30.72;45.69
50684;BME280;36654;45.042;38.994;2022-08-19T06:53:15;100452.09;;;30.66;45.95
50684;BME280;36654;45.042;38.994;2022-08-19T06:55:40;100470.41;;;30.77;45.74
50684;BME280;36654;45.042;38.994;2022-08-19T06:58:06;100463.31;;;30.74;45.82
50684;BME280;36654;45.042;38.994;2022-08-19T07:00:32;100456.09;;;30.73;45.23
50684;BME280;36654;45.042;38.994;2022-08-19T07:02:58;100470.25;;;30.67;45.60
50684;BME280;36654;45.042;38.994;2022-08-19T07:05:24;100466.53;;;30.68;46.48
50684;BME280;36654;45.042;38.994;2022-08-19T07:07:50;100471.34;;;30.65;46.69
50684;BME280;36654;45.042;38.994;2022-08-19T07:10:16;100456.28;;;30.59;46.58
50684;BME280;36654;45.042;38.994;2022-08-19T07:12:41;100481.59;;;30.74;46.79
50684;BME280;36654;45.042;38.994;2022-08-19T07:15:07;100472.56;;;30.85;45.56
50684;BME280;36654;45.042;38.994;2022-08-19T07:17:37;100463.06;;;30.78;45.19
50684;BME280;36654;45.042;38.994;2022-08-19T07:20:05;100466.88;;;30.88;45.07
50684;BME280;36654;45.042;38.994;2022-08-19T07:22:36;100382.63;;;30.45;44.78
50684;BME280;36654;45.042;38.994;2022-08-19T07:25:02;100456.19;;;30.96;44.39
50684;BME280;36654;45.042;38.994;2022-08-19T07:27:29;100444.50;;;30.94;43.77
50684;BME280;36654;45.042;38.994;2022-08-19T07:29:55;100452.75;;;31.05;44.11
50684;BME280;36654;45.042;38.994;2022-08-19T07:32:20;100451.03;;;31.15;44.22
50684;BME280;36654;45.042;38.994;2022-08-19T07:34:46;100451.94;;;31.38;42.44
50684;BME280;36654;45.042;38.994;2022-08-19T07:37:12;100464.72;;;31.38;42.19
50684;BME280;36654;45.042;38.994;2022-08-19T07:39:38;100456.50;;;31.27;42.75
50684;BME280;36654;45.042;38.994;2022-08-19T07:42:07;100480.28;;;31.26;42.76
50684;BME280;36654;45.042;38.994;2022-08-19T07:44:34;100447.78;;;31.10;42.72
50684;BME280;36654;45.042;38.994;2022-08-19T07:47:01;100454.97;;;31.23;43.45
50684;BME280;36654;45.042;38.994;2022-08-19T07:49:27;100456.38;;;31.28;43.55
50684;BME280;36654;45.042;38.994;2022-08-19T07:51:57;100449.28;;;31.26;43.77
50684;BME280;36654;45.042;38.994;2022-08-19T07:54:24;100472.16;;;31.25;44.34
50684;BME280;36654;45.042;38.994;2022-08-19T07:56:50;100466.06;;;31.21;45.07
50684;BME280;36654;45.042;38.994;2022-08-19T07:59:17;100472.31;;;31.23;45.61
50684;BME280;36654;45.042;38.994;2022-08-19T08:01:44;100468.41;;;31.14;45.99
50684;BME280;36654;45.042;38.994;2022-08-19T08:04:10;100468.66;;;31.11;46.68
50684;BME280;36654;45.042;38.994;2022-08-19T08:06:54;100454.13;;;31.11;46.95
50684;BME280;36654;45.042;38.994;2022-08-19T08:09:40;100463.31;;;31.10;47.22
50684;BME280;36654;45.042;38.994;2022-08-19T08:12:09;100463.69;;;31.05;47.04
50684;BME280;36654;45.042;38.994;2022-08-19T08:14:48;100435.78;;;30.89;47.36
50684;BME280;36654;45.042;38.994;2022-08-19T08:17:16;100456.19;;;30.96;47.19
50684;BME280;36654;45.042;38.994;2022-08-19T08:19:43;100453.47;;;30.96;47.57
50684;BME280;36654;45.042;38.994;2022-08-19T08:22:11;100459.09;;;31.06;47.60
50684;BME280;36654;45.042;38.994;2022-08-19T08:24:56;100445.50;;;31.04;47.35
50684;BME280;36654;45.042;38.994;2022-08-19T08:27:24;100452.25;;;31.11;47.06
50684;BME280;36654;45.042;38.994;2022-08-19T08:29:50;100459.97;;;31.17;46.92
50684;BME280;36654;45.042;38.994;2022-08-19T08:32:15;100465.06;;;31.22;46.76
50684;BME280;36654;45.042;38.994;2022-08-19T08:34:42;100438.44;;;31.13;46.38
50684;BME280;36654;45.042;38.994;2022-08-19T08:37:08;100438.81;;;31.20;47.12
50684;BME280;36654;45.042;38.994;2022-08-19T08:39:33;100458.25;;;31.28;47.34
50684;BME280;36654;45.042;38.994;2022-08-19T08:42:27;100440.72;;;31.30;47.98
50684;BME280;36654;45.042;38.994;2022-08-19T08:44:59;100447.31;;;31.39;48.43
50684;BME280;36654;45.042;38.994;2022-08-19T08:47:29;100435.59;;;31.37;48.10
50684;BME280;36654;45.042;38.994;2022-08-19T08:50:38;100438.63;;;31.45;47.94
50684;BME280;36654;45.042;38.994;2022-08-19T08:53:06;100423.88;;;31.35;48.32
50684;BME280;36654;45.042;38.994;2022-08-19T08:55:33;100425.44;;;31.50;48.66
50684;BME280;36654;45.042;38.994;2022-08-19T08:58:05;100386.06;;;31.51;47.81
50684;BME280;36654;45.042;38.994;2022-08-19T09:00:36;100413.19;;;31.77;47.42
50684;BME280;36654;45.042;38.994;2022-08-19T09:03:09;100407.69;;;31.77;47.49
50684;BME280;36654;45.042;38.994;2022-08-19T09:06:01;100406.72;;;31.78;47.19
50684;BME280;36654;45.042;38.994;2022-08-19T09:11:47;100406.94;;;31.75;46.85
50684;BME280;36654;45.042;38.994;2022-08-19T09:14:35;100408.19;;;31.82;45.91
50684;BME280;36654;45.042;38.994;2022-08-19T09:17:03;100396.75;;;31.77;45.47
50684;BME280;36654;45.042;38.994;2022-08-19T09:19:35;100408.34;;;31.80;45.42
50684;BME280;36654;45.042;38.994;2022-08-19T09:22:00;100359.31;;;31.44;45.90
50684;BME280;36654;45.042;38.994;2022-08-19T09:24:26;100339.88;;;31.35;45.72
50684;BME280;36654;45.042;38.994;2022-08-19T09:26:52;100394.66;;;31.58;45.49
50684;BME280;36654;45.042;38.994;2022-08-19T09:29:18;100381.84;;;31.47;45.02
50684;BME280;36654;45.042;38.994;2022-08-19T09:31:45;100415.94;;;31.66;45.32
50684;BME280;36654;45.042;38.994;2022-08-19T09:34:10;100404.25;;;31.64;45.59
50684;BME280;36654;45.042;38.994;2022-08-19T09:36:36;100433.16;;;31.68;46.14
50684;BME280;36654;45.042;38.994;2022-08-19T09:39:05;100399.91;;;31.38;45.60
50684;BME280;36654;45.042;38.994;2022-08-19T09:41:31;100425.50;;;31.37;46.04
50684;BME280;36654;45.042;38.994;2022-08-19T09:43:58;100419.91;;;31.16;46.18
50684;BME280;36654;45.042;38.994;2022-08-19T09:46:27;100402.22;;;30.98;46.31
50684;BME280;36654;45.042;38.994;2022-08-19T09:48:53;100410.16;;;30.90;46.19
50684;BME280;36654;45.042;38.994;2022-08-19T09:51:24;100404.50;;;30.80;46.35
50684;BME280;36654;45.042;38.994;2022-08-19T09:53:52;100382.44;;;30.48;46.66
50684;BME280;36654;45.042;38.994;2022-08-19T09:56:22;100437.16;;;30.59;46.91
50684;BME280;36654;45.042;38.994;2022-08-19T09:58:48;100379.03;;;30.33;47.04
50684;BME280;36654;45.042;38.994;2022-08-19T10:01:23;100416.50;;;30.55;46.81
50684;BME280;36654;45.042;38.994;2022-08-19T10:03:51;100423.47;;;30.59;47.01
50684;BME280;36654;45.042;38.994;2022-08-19T10:06:19;100434.16;;;30.62;47.26
50684;BME280;36654;45.042;38.994;2022-08-19T10:08:45;100412.63;;;30.58;47.26
50684;BME280;36654;45.042;38.994;2022-08-19T10:11:12;100427.47;;;30.66;46.79
50684;BME280;36654;45.042;38.994;2022-08-19T10:13:39;100431.94;;;30.67;46.65
50684;BME280;36654;45.042;38.994;2022-08-19T10:16:12;100435.69;;;30.66;46.40
50684;BME280;36654;45.042;38.994;2022-08-19T10:18:39;100430.91;;;30.57;46.51
50684;BME280;36654;45.042;38.994;2022-08-19T10:21:17;100433.31;;;30.62;46.89
50684;BME280;36654;45.042;38.994;2022-08-19T10:23:45;100422.59;;;30.59;46.72
50684;BME280;36654;45.042;38.994;2022-08-19T10:26:19;100426.31;;;30.58;47.32
50684;BME280;36654;45.042;38.994;2022-08-19T10:28:45;100384.00;;;30.39;47.45
50684;BME280;36654;45.042;38.994;2022-08-19T10:31:17;100435.94;;;30.63;47.84
50684;BME280;36654;45.042;38.994;2022-08-19T10:33:45;100436.03;;;30.62;47.68
50684;BME280;36654;45.042;38.994;2022-08-19T10:36:17;100434.81;;;30.66;47.27
50684;BME280;36654;45.042;38.994;2022-08-19T10:38:44;100436.44;;;30.68;47.27
50684;BME280;36654;45.042;38.994;2022-08-19T10:41:14;100441.56;;;30.73;46.86
50684;BME280;36654;45.042;38.994;2022-08-19T10:43:41;100420.66;;;30.72;47.00
50684;BME280;36654;45.042;38.994;2022-08-19T10:46:09;100432.97;;;30.78;46.92
50684;BME280;36654;45.042;38.994;2022-08-19T10:48:35;100435.88;;;30.87;47.18
50684;BME280;36654;45.042;38.994;2022-08-19T10:51:01;100406.34;;;30.68;47.20
50684;BME280;36654;45.042;38.994;2022-08-19T10:53:46;100437.75;;;30.87;47.76
50684;BME280;36654;45.042;38.994;2022-08-19T10:56:12;100427.63;;;30.76;47.00
50684;BME280;36654;45.042;38.994;2022-08-19T10:58:56;100456.63;;;30.79;47.78
50684;BME280;36654;45.042;38.994;2022-08-19T11:01:24;100412.78;;;30.56;48.11
50684;BME280;36654;45.042;38.994;2022-08-19T11:03:50;100451.91;;;30.81;47.66
50684;BME280;36654;45.042;38.994;2022-08-19T11:06:17;100440.19;;;30.79;46.86
50684;BME280;36654;45.042;38.994;2022-08-19T11:08:42;100458.53;;;30.89;45.98
50684;BME280;36654;45.042;38.994;2022-08-19T11:11:10;100450.38;;;31.01;45.38
50684;BME280;36654;45.042;38.994;2022-08-19T11:13:40;100449.91;;;31.18;44.08
50684;BME280;36654;45.042;38.994;2022-08-19T11:18:38;100440.50;;;31.56;41.75
50684;BME280;36654;45.042;38.994;2022-08-19T11:21:13;100447.81;;;31.67;41.96
50684;BME280;36654;45.042;38.994;2022-08-19T11:23:40;100440.34;;;31.69;42.53
50684;BME280;36654;45.042;38.994;2022-08-19T11:26:06;100429.88;;;31.63;42.97
50684;BME280;36654;45.042;38.994;2022-08-19T11:28:32;100432.38;;;31.54;42.64
50684;BME280;36654;45.042;38.994;2022-08-19T11:30:57;100401.72;;;31.27;42.97
50684;BME280;36654;45.042;38.994;2022-08-19T11:33:23;100404.22;;;31.19;43.01
50684;BME280;36654;45.042;38.994;2022-08-19T11:35:52;100373.38;;;31.05;43.90
50684;BME280;36654;45.042;38.994;2022-08-19T11:38:18;100396.00;;;31.07;42.96
50684;BME280;36654;45.042;38.994;2022-08-19T11:40:43;100421.91;;;31.26;43.16
50684;BME280;36654;45.042;38.994;2022-08-19T11:43:09;100397.88;;;31.18;42.85
50684;BME280;36654;45.042;38.994;2022-08-19T11:45:35;100408.22;;;31.26;42.21
50684;BME280;36654;45.042;38.994;2022-08-19T11:48:01;100408.72;;;31.31;42.08
50684;BME280;36654;45.042;38.994;2022-08-19T11:50:27;100409.06;;;31.37;42.61
50684;BME280;36654;45.042;38.994;2022-08-19T11:52:54;100404.72;;;31.35;42.20
50684;BME280;36654;45.042;38.994;2022-08-19T11:55:21;100406.47;;;31.36;41.59
50684;BME280;36654;45.042;38.994;2022-08-19T11:57:47;100392.78;;;31.25;42.26
50684;BME280;36654;45.042;38.994;2022-08-19T12:00:13;100410.44;;;31.32;42.55
50684;BME280;36654;45.042;38.994;2022-08-19T12:02:39;100413.19;;;31.21;43.38
50684;BME280;36654;45.042;38.994;2022-08-19T12:05:05;100404.22;;;31.19;43.10
50684;BME280;36654;45.042;38.994;2022-08-19T12:07:33;100394.75;;;31.23;42.70
50684;BME280;36654;45.042;38.994;2022-08-19T12:09:59;100402.97;;;31.23;41.92
50684;BME280;36654;45.042;38.994;2022-08-19T12:12:26;100403.25;;;31.31;41.13
50684;BME280;36654;45.042;38.994;2022-08-19T12:14:52;100397.50;;;31.34;41.12
50684;BME280;36654;45.042;38.994;2022-08-19T12:17:28;100377.97;;;31.16;42.04
50684;BME280;36654;45.042;38.994;2022-08-19T12:19:54;100383.81;;;31.23;41.84
50684;BME280;36654;45.042;38.994;2022-08-19T12:22:20;100386.56;;;31.34;41.74
50684;BME280;36654;45.042;38.994;2022-08-19T12:24:47;100393.06;;;31.44;40.40
50684;BME280;36654;45.042;38.994;2022-08-19T12:27:16;100390.53;;;31.52;40.88
50684;BME280;36654;45.042;38.994;2022-08-19T12:29:41;100383.94;;;31.55;40.41
50684;BME280;36654;45.042;38.994;2022-08-19T12:32:07;100391.78;;;31.59;40.33
50684;BME280;36654;45.042;38.994;2022-08-19T12:34:34;100392.53;;;31.62;40.64
50684;BME280;36654;45.042;38.994;2022-08-19T12:37:03;100396.78;;;31.66;40.61
50684;BME280;36654;45.042;38.994;2022-08-19T12:39:30;100375.09;;;31.63;40.47
50684;BME280;36654;45.042;38.994;2022-08-19T12:41:56;100347.25;;;31.46;40.53
50684;BME280;36654;45.042;38.994;2022-08-19T12:44:23;100401.09;;;31.79;40.54
50684;BME280;36654;45.042;38.994;2022-08-19T12:46:49;100391.41;;;31.75;40.13
50684;BME280;36654;45.042;38.994;2022-08-19T12:49:14;100388.03;;;31.72;40.99
50684;BME280;36654;45.042;38.994;2022-08-19T12:51:40;100383.56;;;31.71;40.58
50684;BME280;36654;45.042;38.994;2022-08-19T12:54:06;100390.03;;;31.70;40.15
50684;BME280;36654;45.042;38.994;2022-08-19T12:56:32;100378.09;;;31.71;39.75